sensor_id;sensor_type;location;lat;lon;timestamp;pressure;altitude;pressure_sealevel;temperature;humidity
21185;BME280;18176;49.502;11.754;2022-11-09T00:03:21;96752.00;;;14.53;62.50
21185;BME280;18176;49.502;11.754;2022-11-09T00:07:24;96730.13;;;15.18;60.30
21185;BME280;18176;49.502;11.754;2022-11-09T00:11:24;96693.28;;;15.05;59.96
21185;BME280;18176;49.502;11.754;2022-11-09T00:15:24;96725.56;;;15.09;60.33
21185;BME280;18176;49.502;11.754;2022-11-09T00:19:24;96729.06;;;14.47;62.43
21185;BME280;18176;49.502;11.754;2022-11-09T00:23:27;96731.97;;;15.08;60.47
21185;BME280;18176;49.502;11.754;2022-11-09T00:27:28;96737.56;;;15.11;60.29
21185;BME280;18176;49.502;11.754;2022-11-09T00:31:28;96722.84;;;14.94;59.96
21185;BME280;18176;49.502;11.754;2022-11-09T00:35:28;96723.91;;;14.93;60.77
21185;BME280;18176;49.502;11.754;2022-11-09T00:39:30;96737.78;;;15.00;60.35
21185;BME280;18176;49.502;11.754;2022-11-09T00:43:31;96739.13;;;14.97;60.17
21185;BME280;18176;49.502;11.754;2022-11-09T00:47:32;96738.81;;;14.84;60.64
21185;BME280;18176;49.502;11.754;2022-11-09T00:51:32;96741.19;;;14.85;60.76
21185;BME280;18176;49.502;11.754;2022-11-09T00:55:35;96729.22;;;14.83;60.85
21185;BME280;18176;49.502;11.754;2022-11-09T00:59:35;96727.56;;;14.66;61.07
21185;BME280;18176;49.502;11.754;2022-11-09T01:03:35;96650.09;;;14.41;61.00
21185;BME280;18176;49.502;11.754;2022-11-09T01:07:37;96715.34;;;14.86;60.29
21185;BME280;18176;49.502;11.754;2022-11-09T01:11:40;96701.97;;;14.70;61.02
21185;BME280;18176;49.502;11.754;2022-11-09T01:15:41;96699.78;;;14.62;61.05
21185;BME280;18176;49.502;11.754;2022-11-09T01:19:42;96720.03;;;14.58;61.35
21185;BME280;18176;49.502;11.754;2022-11-09T01:23:44;96698.63;;;14.38;61.93
21185;BME280;18176;49.502;11.754;2022-11-09T01:27:46;96714.38;;;14.45;61.48
21185;BME280;18176;49.502;11.754;2022-11-09T01:31:46;96725.13;;;14.23;62.62
21185;BME280;18176;49.502;11.754;2022-11-09T01:35:47;96685.88;;;14.50;61.14
21185;BME280;18176;49.502;11.754;2022-11-09T01:39:47;96716.78;;;14.46;61.74
21185;BME280;18176;49.502;11.754;2022-11-09T01:44:09;96713.38;;;14.61;61.29
21185;BME280;18176;49.502;11.754;2022-11-09T01:48:15;96653.19;;;14.23;61.35
21185;BME280;18176;49.502;11.754;2022-11-09T01:52:23;96701.97;;;14.81;60.97
21185;BME280;18176;49.502;11.754;2022-11-09T01:56:28;96709.63;;;14.62;61.13
21185;BME280;18176;49.502;11.754;2022-11-09T02:00:34;96713.47;;;14.81;60.70
21185;BME280;18176;49.502;11.754;2022-11-09T02:04:39;96712.88;;;14.64;60.90
21185;BME280;18176;49.502;11.754;2022-11-09T02:08:43;96689.03;;;14.42;61.39
21185;BME280;18176;49.502;11.754;2022-11-09T02:12:45;96687.19;;;14.43;61.68
21185;BME280;18176;49.502;11.754;2022-11-09T02:16:49;96657.50;;;14.29;61.69
21185;BME280;18176;49.502;11.754;2022-11-09T02:20:55;96674.69;;;14.53;61.20
21185;BME280;18176;49.502;11.754;2022-11-09T02:24:56;96668.56;;;14.06;62.91
21185;BME280;18176;49.502;11.754;2022-11-09T02:28:59;96660.75;;;14.41;62.03
21185;BME280;18176;49.502;11.754;2022-11-09T02:33:02;96666.09;;;14.41;61.87
21185;BME280;18176;49.502;11.754;2022-11-09T02:37:05;96667.13;;;14.35;61.87
21185;BME280;18176;49.502;11.754;2022-11-09T02:41:07;96652.16;;;14.29;61.78
21185;BME280;18176;49.502;11.754;2022-11-09T02:45:09;96680.00;;;14.53;61.31
21185;BME280;18176;49.502;11.754;2022-11-09T02:49:11;96662.84;;;14.29;61.39
21185;BME280;18176;49.502;11.754;2022-11-09T02:53:14;96658.75;;;14.17;61.70
21185;BME280;18176;49.502;11.754;2022-11-09T02:57:15;96689.03;;;14.42;61.48
21185;BME280;18176;49.502;11.754;2022-11-09T03:01:15;96702.34;;;14.37;61.28
21185;BME280;18176;49.502;11.754;2022-11-09T03:05:16;96703.81;;;14.23;61.97
21185;BME280;18176;49.502;11.754;2022-11-09T03:09:18;96704.19;;;13.95;62.32
21185;BME280;18176;49.502;11.754;2022-11-09T03:13:20;96649.00;;;13.49;62.77
21185;BME280;18176;49.502;11.754;2022-11-09T03:17:23;96685.16;;;13.81;62.30
21185;BME280;18176;49.502;11.754;2022-11-09T03:21:23;96708.53;;;14.06;62.04
21185;BME280;18176;49.502;11.754;2022-11-09T03:25:27;96710.31;;;13.95;62.38
21185;BME280;18176;49.502;11.754;2022-11-09T03:29:29;96699.34;;;13.87;62.46
21185;BME280;18176;49.502;11.754;2022-11-09T03:33:30;96700.91;;;13.83;62.47
21185;BME280;18176;49.502;11.754;2022-11-09T03:37:31;96701.91;;;14.14;61.93
21185;BME280;18176;49.502;11.754;2022-11-09T03:41:35;96705.03;;;14.42;61.31
21185;BME280;18176;49.502;11.754;2022-11-09T03:45:37;96699.69;;;14.42;60.97
21185;BME280;18176;49.502;11.754;2022-11-09T03:49:38;96691.97;;;14.41;60.66
21185;BME280;18176;49.502;11.754;2022-11-09T03:53:38;96703.41;;;14.41;60.51
21185;BME280;18176;49.502;11.754;2022-11-09T03:57:40;96700.19;;;14.39;60.56
21185;BME280;18176;49.502;11.754;2022-11-09T04:01:43;96707.97;;;14.04;61.48
21185;BME280;18176;49.502;11.754;2022-11-09T04:05:44;96651.94;;;13.89;61.13
21185;BME280;18176;49.502;11.754;2022-11-09T04:09:44;96690.41;;;14.08;61.60
21185;BME280;18176;49.502;11.754;2022-11-09T04:13:47;96675.22;;;14.03;61.58
21185;BME280;18176;49.502;11.754;2022-11-09T04:17:54;96679.72;;;14.03;61.94
21185;BME280;18176;49.502;11.754;2022-11-09T04:21:55;96687.22;;;14.06;61.67
21185;BME280;18176;49.502;11.754;2022-11-09T04:25:57;96696.38;;;14.20;61.21
21185;BME280;18176;49.502;11.754;2022-11-09T04:30:00;96704.81;;;14.12;61.33
21185;BME280;18176;49.502;11.754;2022-11-09T04:34:00;96705.19;;;13.89;61.88
21185;BME280;18176;49.502;11.754;2022-11-09T04:38:04;96714.03;;;13.94;61.55
21185;BME280;18176;49.502;11.754;2022-11-09T04:42:04;96693.97;;;13.82;61.71
21185;BME280;18176;49.502;11.754;2022-11-09T04:46:07;96705.50;;;13.97;61.81
21185;BME280;18176;49.502;11.754;2022-11-09T04:50:09;96679.72;;;14.03;61.17
21185;BME280;18176;49.502;11.754;2022-11-09T04:54:10;96706.59;;;14.33;60.91
21185;BME280;18176;49.502;11.754;2022-11-09T04:58:10;96708.03;;;14.56;60.36
21185;BME280;18176;49.502;11.754;2022-11-09T05:02:13;96712.75;;;14.44;60.41
21185;BME280;18176;49.502;11.754;2022-11-09T05:06:14;96721.66;;;14.59;60.40
21185;BME280;18176;49.502;11.754;2022-11-09T05:10:27;96723.75;;;14.57;59.71
21185;BME280;18176;49.502;11.754;2022-11-09T05:14:27;96721.13;;;14.62;59.55
21185;BME280;18176;49.502;11.754;2022-11-09T05:18:30;96720.56;;;14.60;59.15
21185;BME280;18176;49.502;11.754;2022-11-09T05:22:30;96718.47;;;14.67;59.08
21185;BME280;18176;49.502;11.754;2022-11-09T05:26:43;96734.00;;;14.75;58.76
21185;BME280;18176;49.502;11.754;2022-11-09T05:30:43;96734.41;;;14.57;59.41
21185;BME280;18176;49.502;11.754;2022-11-09T05:34:46;96733.09;;;14.60;58.98
21185;BME280;18176;49.502;11.754;2022-11-09T05:38:46;96739.75;;;14.57;59.05
21185;BME280;18176;49.502;11.754;2022-11-09T05:42:47;96748.72;;;14.41;60.22
21185;BME280;18176;49.502;11.754;2022-11-09T05:46:47;96725.06;;;14.08;60.79
21185;BME280;18176;49.502;11.754;2022-11-09T05:50:50;96737.78;;;14.01;61.47
21185;BME280;18176;49.502;11.754;2022-11-09T05:54:53;96758.56;;;13.99;61.41
21185;BME280;18176;49.502;11.754;2022-11-09T05:58:53;96755.41;;;14.07;61.38
21185;BME280;18176;49.502;11.754;2022-11-09T06:03:00;96757.88;;;14.19;60.89
21185;BME280;18176;49.502;11.754;2022-11-09T06:07:03;96742.28;;;14.32;60.18
21185;BME280;18176;49.502;11.754;2022-11-09T06:11:07;96737.44;;;14.29;60.10
21185;BME280;18176;49.502;11.754;2022-11-09T06:15:08;96765.88;;;14.50;59.85
21185;BME280;18176;49.502;11.754;2022-11-09T06:19:09;96766.88;;;14.44;59.81
21185;BME280;18176;49.502;11.754;2022-11-09T06:23:11;96778.34;;;14.45;59.65
21185;BME280;18176;49.502;11.754;2022-11-09T06:27:12;96783.94;;;14.43;59.98
21185;BME280;18176;49.502;11.754;2022-11-09T06:31:15;96775.09;;;14.38;59.63
21185;BME280;18176;49.502;11.754;2022-11-09T06:35:16;96781.78;;;14.40;60.18
21185;BME280;18176;49.502;11.754;2022-11-09T06:39:19;96810.69;;;14.58;60.13
21185;BME280;18176;49.502;11.754;2022-11-09T06:43:20;96806.41;;;14.52;60.31
21185;BME280;18176;49.502;11.754;2022-11-09T06:47:20;96809.09;;;14.62;59.52
21185;BME280;18176;49.502;11.754;2022-11-09T06:51:20;96808.06;;;14.63;59.42
21185;BME280;18176;49.502;11.754;2022-11-09T06:55:23;96791.75;;;14.60;59.07
21185;BME280;18176;49.502;11.754;2022-11-09T06:59:23;96814.63;;;14.98;58.79
21185;BME280;18176;49.502;11.754;2022-11-09T07:03:25;96826.47;;;15.22;58.90
21185;BME280;18176;49.502;11.754;2022-11-09T07:07:25;96837.25;;;15.42;57.57
21185;BME280;18176;49.502;11.754;2022-11-09T07:11:28;96827.69;;;15.66;57.63
21185;BME280;18176;49.502;11.754;2022-11-09T07:15:29;96806.34;;;15.56;56.78
21185;BME280;18176;49.502;11.754;2022-11-09T07:19:30;96805.81;;;15.64;56.71
21185;BME280;18176;49.502;11.754;2022-11-09T07:23:30;96804.22;;;15.83;56.30
21185;BME280;18176;49.502;11.754;2022-11-09T07:27:33;96811.94;;;15.75;56.28
21185;BME280;18176;49.502;11.754;2022-11-09T07:31:34;96803.66;;;15.51;55.98
21185;BME280;18176;49.502;11.754;2022-11-09T07:35:34;96817.03;;;15.71;56.15
21185;BME280;18176;49.502;11.754;2022-11-09T07:39:34;96814.94;;;15.88;55.92
21185;BME280;18176;49.502;11.754;2022-11-09T07:43:37;96809.03;;;15.91;55.25
21185;BME280;18176;49.502;11.754;2022-11-09T07:47:37;96822.09;;;15.73;56.10
21185;BME280;18176;49.502;11.754;2022-11-09T07:51:37;96825.34;;;16.15;55.29
21185;BME280;18176;49.502;11.754;2022-11-09T07:55:38;96831.75;;;15.79;55.75
21185;BME280;18176;49.502;11.754;2022-11-09T07:59:41;96837.38;;;15.92;55.82
21185;BME280;18176;49.502;11.754;2022-11-09T08:03:42;96836.31;;;15.88;55.45
21185;BME280;18176;49.502;11.754;2022-11-09T08:07:42;96817.31;;;16.05;54.74
21185;BME280;18176;49.502;11.754;2022-11-09T08:11:42;96813.31;;;15.87;55.38
21185;BME280;18176;49.502;11.754;2022-11-09T08:15:45;96810.38;;;15.89;55.27
21185;BME280;18176;49.502;11.754;2022-11-09T08:19:46;96843.78;;;16.47;54.00
21185;BME280;18176;49.502;11.754;2022-11-09T08:23:46;96820.28;;;16.44;54.00
21185;BME280;18176;49.502;11.754;2022-11-09T08:27:47;96847.28;;;16.62;54.10
21185;BME280;18176;49.502;11.754;2022-11-09T08:31:51;96827.22;;;16.70;54.11
21185;BME280;18176;49.502;11.754;2022-11-09T08:35:51;96827.44;;;16.83;53.64
21185;BME280;18176;49.502;11.754;2022-11-09T08:39:51;96837.06;;;16.90;54.02
21185;BME280;18176;49.502;11.754;2022-11-09T08:43:51;96841.09;;;16.87;54.01
21185;BME280;18176;49.502;11.754;2022-11-09T08:47:59;96826.69;;;16.43;55.36
21185;BME280;18176;49.502;11.754;2022-11-09T08:52:00;96816.50;;;16.35;55.56
21185;BME280;18176;49.502;11.754;2022-11-09T08:56:01;96832.59;;;16.30;55.66
21185;BME280;18176;49.502;11.754;2022-11-09T09:00:03;96847.56;;;16.66;55.36
21185;BME280;18176;49.502;11.754;2022-11-09T09:04:09;96852.34;;;16.84;54.47
21185;BME280;18176;49.502;11.754;2022-11-09T09:08:09;96855.44;;;17.21;54.30
21185;BME280;18176;49.502;11.754;2022-11-09T09:12:11;96818.66;;;16.58;55.28
21185;BME280;18176;49.502;11.754;2022-11-09T09:16:14;96845.44;;;16.53;56.23
21185;BME280;18176;49.502;11.754;2022-11-09T09:20:18;96858.78;;;16.63;56.17
21185;BME280;18176;49.502;11.754;2022-11-09T09:24:18;96856.66;;;16.55;56.58
21185;BME280;18176;49.502;11.754;2022-11-09T09:28:18;96836.28;;;16.84;56.29
21185;BME280;18176;49.502;11.754;2022-11-09T09:32:19;96854.94;;;17.09;56.11
21185;BME280;18176;49.502;11.754;2022-11-09T09:36:24;96829.22;;;17.18;55.50
21185;BME280;18176;49.502;11.754;2022-11-09T09:40:32;96843.59;;;17.37;55.63
21185;BME280;18176;49.502;11.754;2022-11-09T09:44:39;96851.31;;;17.49;55.54
21185;BME280;18176;49.502;11.754;2022-11-09T09:48:49;96858.53;;;17.59;55.38
21185;BME280;18176;49.502;11.754;2022-11-09T09:53:00;96860.00;;;17.80;54.53
21185;BME280;18176;49.502;11.754;2022-11-09T09:57:22;96837.94;;;17.98;53.77
21185;BME280;18176;49.502;11.754;2022-11-09T10:01:35;96842.09;;;18.14;54.05
21185;BME280;18176;49.502;11.754;2022-11-09T10:05:50;96811.03;;;17.69;53.93
21185;BME280;18176;49.502;11.754;2022-11-09T10:10:12;96832.38;;;18.23;52.94
21185;BME280;18176;49.502;11.754;2022-11-09T10:14:54;96824.41;;;18.13;52.85
21185;BME280;18176;49.502;11.754;2022-11-09T10:19:22;96841.00;;;18.82;52.42
21185;BME280;18176;49.502;11.754;2022-11-09T10:23:55;96829.22;;;18.78;51.71
21185;BME280;18176;49.502;11.754;2022-11-09T10:28:09;96825.41;;;19.08;50.90
21185;BME280;18176;49.502;11.754;2022-11-09T10:32:14;96830.72;;;18.89;51.60
21185;BME280;18176;49.502;11.754;2022-11-09T10:36:24;96828.38;;;18.54;51.71
21185;BME280;18176;49.502;11.754;2022-11-09T10:40:31;96817.75;;;18.39;51.98
21185;BME280;18176;49.502;11.754;2022-11-09T10:44:54;96782.63;;;18.07;53.42
21185;BME280;18176;49.502;11.754;2022-11-09T10:49:20;96806.97;;;18.15;53.13
21185;BME280;18176;49.502;11.754;2022-11-09T10:53:39;96804.09;;;18.07;53.31
21185;BME280;18176;49.502;11.754;2022-11-09T10:58:00;96785.47;;;18.20;53.05
21185;BME280;18176;49.502;11.754;2022-11-09T11:02:47;96784.25;;;19.13;51.42
21185;BME280;18176;49.502;11.754;2022-11-09T11:07:14;96755.25;;;19.89;50.37
21185;BME280;18176;49.502;11.754;2022-11-09T11:11:38;96769.84;;;21.34;46.68
21185;BME280;18176;49.502;11.754;2022-11-09T11:15:58;96761.28;;;22.57;44.14
21185;BME280;18176;49.502;11.754;2022-11-09T11:20:31;96756.09;;;22.99;42.92
21185;BME280;18176;49.502;11.754;2022-11-09T11:24:55;96758.16;;;22.63;42.83
21185;BME280;18176;49.502;11.754;2022-11-09T11:29:28;96743.06;;;23.01;42.56
21185;BME280;18176;49.502;11.754;2022-11-09T11:33:49;96730.00;;;22.25;43.27
21185;BME280;18176;49.502;11.754;2022-11-09T11:38:23;96751.63;;;21.53;45.47
21185;BME280;18176;49.502;11.754;2022-11-09T11:43:05;96745.81;;;21.24;46.04
21185;BME280;18176;49.502;11.754;2022-11-09T11:47:41;96740.09;;;21.39;46.37
21185;BME280;18176;49.502;11.754;2022-11-09T11:52:13;96744.50;;;21.35;47.03
21185;BME280;18176;49.502;11.754;2022-11-09T11:56:41;96715.81;;;21.39;46.76
21185;BME280;18176;49.502;11.754;2022-11-09T12:01:19;96722.41;;;22.97;45.50
21185;BME280;18176;49.502;11.754;2022-11-09T12:06:31;96705.34;;;23.70;42.71
21185;BME280;18176;49.502;11.754;2022-11-09T12:11:10;96699.41;;;23.34;43.35
21185;BME280;18176;49.502;11.754;2022-11-09T12:15:49;96664.41;;;23.29;44.29
21185;BME280;18176;49.502;11.754;2022-11-09T12:20:27;96665.56;;;23.62;43.79
21185;BME280;18176;49.502;11.754;2022-11-09T12:24:57;96687.16;;;24.60;42.62
21185;BME280;18176;49.502;11.754;2022-11-09T12:29:20;96687.13;;;25.06;41.17
21185;BME280;18176;49.502;11.754;2022-11-09T12:33:48;96636.56;;;24.52;41.44
21185;BME280;18176;49.502;11.754;2022-11-09T12:38:15;96674.41;;;24.22;42.76
21185;BME280;18176;49.502;11.754;2022-11-09T12:42:41;96691.78;;;23.27;43.70
21185;BME280;18176;49.502;11.754;2022-11-09T12:47:08;96694.25;;;22.98;43.97
21185;BME280;18176;49.502;11.754;2022-11-09T12:51:33;96698.75;;;22.63;43.77
21185;BME280;18176;49.502;11.754;2022-11-09T12:55:58;96671.91;;;22.36;43.86
21185;BME280;18176;49.502;11.754;2022-11-09T13:00:51;96673.13;;;25.04;39.42
21185;BME280;18176;49.502;11.754;2022-11-09T13:05:28;96676.22;;;24.48;39.29
21185;BME280;18176;49.502;11.754;2022-11-09T13:09:57;96686.09;;;25.19;38.90
21185;BME280;18176;49.502;11.754;2022-11-09T13:14:40;96692.88;;;25.54;37.39
21185;BME280;18176;49.502;11.754;2022-11-09T13:19:02;96695.88;;;24.27;39.17
21185;BME280;18176;49.502;11.754;2022-11-09T13:23:39;96670.69;;;24.73;38.69
21185;BME280;18176;49.502;11.754;2022-11-09T13:33:35;96676.59;;;25.54;37.70
21185;BME280;18176;49.502;11.754;2022-11-09T13:37:56;96701.56;;;26.22;36.97
21185;BME280;18176;49.502;11.754;2022-11-09T13:42:26;96705.91;;;26.35;36.32
21185;BME280;18176;49.502;11.754;2022-11-09T13:46:48;96706.47;;;25.25;37.54
21185;BME280;18176;49.502;11.754;2022-11-09T13:51:13;96703.47;;;25.47;37.94
21185;BME280;18176;49.502;11.754;2022-11-09T13:55:36;96708.72;;;24.48;38.96
21185;BME280;18176;49.502;11.754;2022-11-09T13:59:58;96712.00;;;24.24;39.62
21185;BME280;18176;49.502;11.754;2022-11-09T14:04:22;96711.22;;;23.81;40.62
21185;BME280;18176;49.502;11.754;2022-11-09T14:08:44;96730.63;;;22.83;42.28
21185;BME280;18176;49.502;11.754;2022-11-09T14:13:23;96703.94;;;22.90;42.06
21185;BME280;18176;49.502;11.754;2022-11-09T14:18:01;96731.81;;;22.38;43.18
21185;BME280;18176;49.502;11.754;2022-11-09T14:22:22;96744.97;;;21.87;44.09
21185;BME280;18176;49.502;11.754;2022-11-09T14:27:13;96748.63;;;21.19;45.56
21185;BME280;18176;49.502;11.754;2022-11-09T14:31:41;96718.19;;;20.78;46.10
21185;BME280;18176;49.502;11.754;2022-11-09T14:36:03;96742.25;;;20.10;47.87
21185;BME280;18176;49.502;11.754;2022-11-09T14:40:25;96747.50;;;20.66;46.73
21185;BME280;18176;49.502;11.754;2022-11-09T14:44:48;96758.75;;;19.71;48.55
21185;BME280;18176;49.502;11.754;2022-11-09T14:49:09;96768.56;;;19.81;48.69
21185;BME280;18176;49.502;11.754;2022-11-09T14:53:32;96761.53;;;19.66;48.77
21185;BME280;18176;49.502;11.754;2022-11-09T14:57:54;96730.59;;;19.50;48.74
21185;BME280;18176;49.502;11.754;2022-11-09T15:02:18;96761.94;;;19.73;48.83
21185;BME280;18176;49.502;11.754;2022-11-09T15:06:45;96728.66;;;19.32;49.11
21185;BME280;18176;49.502;11.754;2022-11-09T15:11:06;96767.13;;;19.51;49.38
21185;BME280;18176;49.502;11.754;2022-11-09T15:15:28;96763.53;;;19.37;49.89
21185;BME280;18176;49.502;11.754;2022-11-09T15:19:53;96746.06;;;19.39;49.51
21185;BME280;18176;49.502;11.754;2022-11-09T15:24:15;96775.91;;;19.38;49.99
21185;BME280;18176;49.502;11.754;2022-11-09T15:28:45;96779.91;;;19.17;50.18
21185;BME280;18176;49.502;11.754;2022-11-09T15:33:23;96781.72;;;19.21;50.13
21185;BME280;18176;49.502;11.754;2022-11-09T15:37:51;96786.19;;;18.83;51.13
21185;BME280;18176;49.502;11.754;2022-11-09T15:42:11;96792.84;;;18.91;50.73
21185;BME280;18176;49.502;11.754;2022-11-09T15:46:34;96769.28;;;18.59;51.08
21185;BME280;18176;49.502;11.754;2022-11-09T15:50:55;96792.09;;;18.85;50.48
21185;BME280;18176;49.502;11.754;2022-11-09T15:55:21;96797.19;;;18.87;50.92
21185;BME280;18176;49.502;11.754;2022-11-09T15:59:40;96803.91;;;18.84;50.86
21185;BME280;18176;49.502;11.754;2022-11-09T16:03:59;96802.31;;;18.83;51.16
21185;BME280;18176;49.502;11.754;2022-11-09T16:08:18;96792.16;;;18.23;53.03
21185;BME280;18176;49.502;11.754;2022-11-09T16:12:40;96802.13;;;18.12;53.48
21185;BME280;18176;49.502;11.754;2022-11-09T16:17:01;96808.19;;;17.94;53.78
21185;BME280;18176;49.502;11.754;2022-11-09T16:21:20;96803.97;;;17.83;54.05
21185;BME280;18176;49.502;11.754;2022-11-09T16:25:39;96776.31;;;17.49;54.26
21185;BME280;18176;49.502;11.754;2022-11-09T16:30:03;96810.25;;;17.64;54.40
21185;BME280;18176;49.502;11.754;2022-11-09T16:34:21;96816.59;;;17.78;54.02
21185;BME280;18176;49.502;11.754;2022-11-09T16:38:43;96827.25;;;17.88;53.80
21185;BME280;18176;49.502;11.754;2022-11-09T16:43:03;96822.03;;;17.68;54.09
21185;BME280;18176;49.502;11.754;2022-11-09T16:47:24;96840.00;;;17.62;54.24
21185;BME280;18176;49.502;11.754;2022-11-09T16:51:42;96846.69;;;17.70;54.29
21185;BME280;18176;49.502;11.754;2022-11-09T16:56:01;96845.69;;;17.45;54.77
21185;BME280;18176;49.502;11.754;2022-11-09T17:00:20;96853.13;;;17.64;54.22
21185;BME280;18176;49.502;11.754;2022-11-09T17:05:03;96831.78;;;17.43;54.43
21185;BME280;18176;49.502;11.754;2022-11-09T17:09:21;96866.06;;;17.41;54.48
21185;BME280;18176;49.502;11.754;2022-11-09T17:13:40;96873.59;;;17.29;54.93
21185;BME280;18176;49.502;11.754;2022-11-09T17:17:59;96882.16;;;17.36;55.10
21185;BME280;18176;49.502;11.754;2022-11-09T17:22:21;96880.88;;;17.29;55.21
21185;BME280;18176;49.502;11.754;2022-11-09T17:26:40;96881.63;;;17.34;55.00
21185;BME280;18176;49.502;11.754;2022-11-09T17:30:58;96843.47;;;16.94;54.80
21185;BME280;18176;49.502;11.754;2022-11-09T17:35:17;96880.38;;;17.17;55.31
21185;BME280;18176;49.502;11.754;2022-11-09T17:39:38;96895.63;;;17.11;55.40
21185;BME280;18176;49.502;11.754;2022-11-09T17:43:59;96888.66;;;17.15;55.38
21185;BME280;18176;49.502;11.754;2022-11-09T17:48:18;96898.59;;;16.95;56.09
21185;BME280;18176;49.502;11.754;2022-11-09T17:52:38;96905.56;;;17.01;55.89
21185;BME280;18176;49.502;11.754;2022-11-09T17:57:00;96900.75;;;17.03;55.97
21185;BME280;18176;49.502;11.754;2022-11-09T18:01:20;96905.84;;;16.89;56.57
21185;BME280;18176;49.502;11.754;2022-11-09T18:05:41;96917.63;;;16.63;57.24
21185;BME280;18176;49.502;11.754;2022-11-09T18:09:59;96906.13;;;16.32;58.07
21185;BME280;18176;49.502;11.754;2022-11-09T18:14:21;96914.88;;;15.97;58.89
21185;BME280;18176;49.502;11.754;2022-11-09T18:18:40;96911.44;;;16.42;57.54
21185;BME280;18176;49.502;11.754;2022-11-09T18:22:59;96927.28;;;16.59;56.86
21185;BME280;18176;49.502;11.754;2022-11-09T18:27:18;96922.19;;;16.52;57.19
21185;BME280;18176;49.502;11.754;2022-11-09T18:31:47;96937.88;;;16.08;58.46
21185;BME280;18176;49.502;11.754;2022-11-09T18:36:10;96944.28;;;16.02;58.80
21185;BME280;18176;49.502;11.754;2022-11-09T18:40:30;96931.22;;;16.11;58.63
21185;BME280;18176;49.502;11.754;2022-11-09T18:44:49;96946.47;;;16.21;58.90
21185;BME280;18176;49.502;11.754;2022-11-09T18:49:11;96942.22;;;16.40;58.67
21185;BME280;18176;49.502;11.754;2022-11-09T18:53:35;96940.63;;;16.44;58.43
21185;BME280;18176;49.502;11.754;2022-11-09T18:57:53;96951.84;;;16.41;58.42
21185;BME280;18176;49.502;11.754;2022-11-09T19:02:13;96945.97;;;16.44;58.27
21185;BME280;18176;49.502;11.754;2022-11-09T19:06:34;96952.91;;;16.45;58.47
21185;BME280;18176;49.502;11.754;2022-11-09T19:10:53;96953.44;;;16.32;59.26
21185;BME280;18176;49.502;11.754;2022-11-09T19:15:12;96960.41;;;16.43;58.84
21185;BME280;18176;49.502;11.754;2022-11-09T19:19:30;96939.53;;;16.40;58.28
21185;BME280;18176;49.502;11.754;2022-11-09T19:23:52;96962.53;;;16.41;59.61
21185;BME280;18176;49.502;11.754;2022-11-09T19:28:11;96959.34;;;16.39;59.70
21185;BME280;18176;49.502;11.754;2022-11-09T19:32:29;96949.97;;;16.46;58.77
21185;BME280;18176;49.502;11.754;2022-11-09T19:36:48;96911.16;;;16.08;59.54
21185;BME280;18176;49.502;11.754;2022-11-09T19:41:10;96974.31;;;16.45;59.48
21185;BME280;18176;49.502;11.754;2022-11-09T19:45:28;96971.66;;;16.50;59.62
21185;BME280;18176;49.502;11.754;2022-11-09T19:49:47;96979.66;;;16.40;59.97
21185;BME280;18176;49.502;11.754;2022-11-09T19:54:06;96984.69;;;16.21;60.43
21185;BME280;18176;49.502;11.754;2022-11-09T19:58:27;96993.25;;;16.23;60.76
21185;BME280;18176;49.502;11.754;2022-11-09T20:02:47;97004.69;;;16.03;61.19
21185;BME280;18176;49.502;11.754;2022-11-09T20:07:08;97003.63;;;16.09;61.11
21185;BME280;18176;49.502;11.754;2022-11-09T20:11:30;96968.69;;;15.54;62.51
21185;BME280;18176;49.502;11.754;2022-11-09T20:16:08;97004.13;;;15.96;61.98
21185;BME280;18176;49.502;11.754;2022-11-09T20:20:28;97013.75;;;16.02;61.70
21185;BME280;18176;49.502;11.754;2022-11-09T20:24:52;96962.31;;;15.60;62.13
21185;BME280;18176;49.502;11.754;2022-11-09T20:29:20;96947.91;;;15.66;62.09
21185;BME280;18176;49.502;11.754;2022-11-09T20:33:55;96965.84;;;15.76;61.99
21185;BME280;18176;49.502;11.754;2022-11-09T20:38:18;97025.88;;;16.20;61.99
21185;BME280;18176;49.502;11.754;2022-11-09T20:42:38;97040.03;;;16.26;61.99
21185;BME280;18176;49.502;11.754;2022-11-09T20:46:57;96969.56;;;15.75;62.41
21185;BME280;18176;49.502;11.754;2022-11-09T20:51:23;96992.88;;;15.89;62.33
21185;BME280;18176;49.502;11.754;2022-11-09T20:55:44;97063.09;;;16.37;61.92
21185;BME280;18176;49.502;11.754;2022-11-09T21:02:48;97087.16;;;16.37;62.30
21185;BME280;18176;49.502;11.754;2022-11-09T21:06:00;97053.72;;;16.34;62.20
21185;BME280;18176;49.502;11.754;2022-11-09T21:10:22;97059.88;;;16.30;62.70
21185;BME280;18176;49.502;11.754;2022-11-09T21:14:41;97053.41;;;16.15;63.03
21185;BME280;18176;49.502;11.754;2022-11-09T21:19:00;97028.78;;;16.08;62.78
21185;BME280;18176;49.502;11.754;2022-11-09T21:23:19;97037.59;;;16.14;62.84
21185;BME280;18176;49.502;11.754;2022-11-09T21:27:58;97028.13;;;15.81;63.46
21185;BME280;18176;49.502;11.754;2022-11-09T21:32:39;97058.22;;;16.24;63.43
21185;BME280;18176;49.502;11.754;2022-11-09T21:36:58;97031.09;;;15.90;63.97
21185;BME280;18176;49.502;11.754;2022-11-09T21:41:17;97069.38;;;16.05;64.09
21185;BME280;18176;49.502;11.754;2022-11-09T21:45:51;97065.63;;;16.01;64.63
21185;BME280;18176;49.502;11.754;2022-11-09T21:50:11;97061.84;;;15.92;64.52
21185;BME280;18176;49.502;11.754;2022-11-09T21:54:30;97063.22;;;16.00;64.05
21185;BME280;18176;49.502;11.754;2022-11-09T21:58:49;97074.19;;;16.03;64.35
21185;BME280;18176;49.502;11.754;2022-11-09T22:03:10;97073.16;;;16.14;64.27
21185;BME280;18176;49.502;11.754;2022-11-09T22:07:28;97080.16;;;16.21;63.64
21185;BME280;18176;49.502;11.754;2022-11-09T22:11:47;97068.34;;;16.16;63.77
21185;BME280;18176;49.502;11.754;2022-11-09T22:16:21;97059.78;;;16.14;63.77